createdAt,value
2019-02-05T00:01:20.850Z,12.63
2019-02-05T00:03:51.351Z,12.37
2019-02-05T00:06:21.670Z,12.07
2019-02-05T00:08:51.651Z,11.90
2019-02-05T00:11:21.696Z,10.43
2019-02-05T00:13:51.975Z,11.60
2019-02-05T00:16:24.406Z,11.07
2019-02-05T00:18:54.499Z,11.70
2019-02-05T00:21:24.650Z,12.37
2019-02-05T00:23:54.738Z,12.37
2019-02-05T00:26:25.014Z,11.10
2019-02-05T00:28:55.154Z,10.73
2019-02-05T00:31:25.248Z,11.23
2019-02-05T00:36:25.228Z,10.93
2019-02-05T00:38:55.235Z,12.53
2019-02-05T00:41:25.245Z,12.27
2019-02-05T00:43:56.360Z,12.33
2019-02-05T00:46:26.315Z,18.07
2019-02-05T00:48:56.415Z,11.70
2019-02-05T00:51:26.442Z,15.10
2019-02-05T00:53:56.446Z,11.53
2019-02-05T00:56:26.525Z,13.03
2019-02-05T00:58:56.515Z,11.30
2019-02-05T01:01:26.964Z,12.43
2019-02-05T01:03:56.998Z,14.40
2019-02-05T01:06:27.113Z,11.43
2019-02-05T01:08:57.154Z,11.53
2019-02-05T01:11:27.150Z,10.40
2019-02-05T01:13:57.283Z,14.70
2019-02-05T01:16:27.350Z,11.23
2019-02-05T01:18:57.383Z,9.90
2019-02-05T01:21:27.617Z,12.23
2019-02-05T01:23:58.886Z,14.83
2019-02-05T01:26:31.053Z,13.57
2019-02-05T01:29:00.777Z,12.80
2019-02-05T01:31:30.919Z,17.30
2019-02-05T01:34:00.286Z,15.73
2019-02-05T01:36:30.340Z,13.90
2019-02-05T01:39:00.413Z,16.13
2019-02-05T01:41:30.445Z,14.97
2019-02-05T01:44:00.420Z,15.03
2019-02-05T01:46:30.640Z,16.00
2019-02-05T01:49:00.746Z,14.07
2019-02-05T01:51:31.045Z,17.03
2019-02-05T01:54:01.083Z,13.70
2019-02-05T01:56:40.370Z,19.47
2019-02-05T01:59:04.405Z,15.63
2019-02-05T02:01:34.383Z,16.10
2019-02-05T02:04:04.606Z,19.03
2019-02-05T02:06:34.850Z,18.50
2019-02-05T02:09:05.382Z,14.13
2019-02-05T02:11:35.382Z,20.60
2019-02-05T02:14:05.627Z,18.67
2019-02-05T02:16:35.821Z,16.37
2019-02-05T02:19:05.945Z,21.47
2019-02-05T02:21:35.999Z,22.73
2019-02-05T02:24:06.715Z,24.13
2019-02-05T02:26:36.958Z,27.03
2019-02-05T02:29:07.132Z,23.53
2019-02-05T02:31:37.218Z,18.50
2019-02-05T02:34:07.370Z,20.20
2019-02-05T02:36:37.523Z,22.70
2019-02-05T02:39:07.650Z,20.20
2019-02-05T02:41:37.627Z,25.20
2019-02-05T02:44:07.608Z,18.33
2019-02-05T02:46:37.768Z,21.13
2019-02-05T02:49:07.856Z,24.77
2019-02-05T02:51:38.381Z,21.77
2019-02-05T02:54:08.473Z,21.30
2019-02-05T02:56:38.625Z,19.80
2019-02-05T02:59:08.587Z,32.13
2019-02-05T03:01:38.719Z,21.73
2019-02-05T03:04:08.907Z,23.33
2019-02-05T03:06:39.375Z,21.90
2019-02-05T03:09:10.234Z,23.33
2019-02-05T03:11:40.453Z,27.97
2019-02-05T03:14:11.749Z,25.73
2019-02-05T03:16:43.343Z,36.10
2019-02-05T03:19:13.336Z,35.97
2019-02-05T03:21:44.009Z,30.93
2019-02-05T03:24:14.335Z,29.77
2019-02-05T03:26:44.447Z,32.50
2019-02-05T03:29:14.698Z,32.10
2019-02-05T03:31:45.017Z,34.90
2019-02-05T03:34:15.090Z,30.90
2019-02-05T03:36:45.233Z,30.00
2019-02-05T03:39:15.436Z,26.83
2019-02-05T03:41:45.597Z,34.33
2019-02-05T03:44:15.608Z,32.63
2019-02-05T03:46:45.846Z,38.07
2019-02-05T03:49:15.961Z,32.50
2019-02-05T03:51:58.953Z,35.27
2019-02-05T03:54:47.815Z,28.67
2019-02-05T03:57:40.139Z,25.83
2019-02-05T04:00:32.209Z,31.90
2019-02-05T04:03:10.821Z,44.13
2019-02-05T04:05:57.642Z,30.73
2019-02-05T04:08:59.259Z,35.40
2019-02-05T04:11:43.675Z,41.70
2019-02-05T04:14:21.532Z,40.23
2019-02-05T04:17:10.737Z,41.40
2019-02-05T04:20:05.103Z,39.07
2019-02-05T04:22:46.239Z,40.47
2019-02-05T04:25:36.663Z,33.77
2019-02-05T04:28:17.276Z,34.00
2019-02-05T04:31:15.741Z,47.40
2019-02-05T04:33:59.590Z,36.77
2019-02-05T04:36:34.226Z,38.80
2019-02-05T04:39:30.128Z,42.93
2019-02-05T04:42:19.521Z,33.87
2019-02-05T04:45:09.021Z,45.10
2019-02-05T04:47:58.316Z,38.07
2019-02-05T04:50:36.009Z,44.80
2019-02-05T04:53:13.474Z,32.93
2019-02-05T04:56:15.665Z,31.57
2019-02-05T04:58:54.876Z,39.83
2019-02-05T05:01:44.078Z,32.33
2019-02-05T05:04:20.380Z,48.40
2019-02-05T05:06:57.675Z,34.77
2019-02-05T05:09:56.949Z,36.77
2019-02-05T05:12:28.304Z,39.70
2019-02-05T05:14:58.882Z,45.33
2019-02-05T05:17:29.006Z,35.23
2019-02-05T05:19:59.245Z,41.17
2019-02-05T05:22:29.426Z,34.07
2019-02-05T05:24:59.558Z,38.90
2019-02-05T05:27:29.989Z,34.13
2019-02-05T05:30:00.381Z,37.33
2019-02-05T05:32:30.581Z,36.73
2019-02-05T05:35:00.782Z,37.80
2019-02-05T05:37:30.909Z,40.30
2019-02-05T05:40:00.907Z,35.83
2019-02-05T05:42:30.943Z,38.53
2019-02-05T05:45:01.246Z,42.23
2019-02-05T05:47:31.588Z,45.87
2019-02-05T05:50:01.691Z,35.23
2019-02-05T05:52:31.686Z,40.90
2019-02-05T05:55:01.670Z,36.33
2019-02-05T05:57:31.948Z,36.70
2019-02-05T06:00:02.420Z,43.57
2019-02-05T06:02:33.983Z,44.97
2019-02-05T06:05:05.426Z,38.40
2019-02-05T06:07:35.880Z,39.97
2019-02-05T06:10:07.231Z,43.67
2019-02-05T06:12:37.545Z,38.10
2019-02-05T06:15:08.576Z,34.33
2019-02-05T06:17:38.725Z,47.77
2019-02-05T06:20:10.103Z,48.07
2019-02-05T06:22:40.223Z,31.73
2019-02-05T06:25:10.549Z,39.73
2019-02-05T06:27:40.721Z,39.17
2019-02-05T06:30:11.622Z,39.30
2019-02-05T06:32:41.838Z,38.07
2019-02-05T06:35:13.166Z,31.83
2019-02-05T06:37:43.822Z,32.93
2019-02-05T06:40:16.228Z,35.73
2019-02-05T06:42:46.368Z,40.10
2019-02-05T06:45:18.094Z,35.10
2019-02-05T06:47:48.144Z,37.83
2019-02-05T06:50:18.365Z,49.67
2019-02-05T06:52:48.641Z,46.23
2019-02-05T06:55:18.944Z,48.27
2019-02-05T06:57:49.150Z,42.37
2019-02-05T07:00:22.233Z,50.47
2019-02-05T07:02:52.999Z,36.97
2019-02-05T07:05:23.588Z,45.97
2019-02-05T07:07:56.746Z,45.93
2019-02-05T07:10:26.873Z,45.47
2019-02-05T07:13:03.536Z,42.60
2019-02-05T07:15:35.487Z,35.67
2019-02-05T07:18:06.044Z,32.67
2019-02-05T07:20:38.162Z,35.30
2019-02-05T07:23:08.617Z,45.33
2019-02-05T07:28:07.550Z,41.53
2019-02-05T07:30:37.889Z,38.70
2019-02-05T07:33:08.087Z,47.60
2019-02-05T07:35:38.601Z,51.23
2019-02-05T07:38:08.936Z,38.73
2019-02-05T07:40:39.104Z,55.20
2019-02-05T07:43:09.277Z,42.53
2019-02-05T07:45:39.452Z,51.17
2019-02-05T07:48:09.714Z,46.10
2019-02-05T07:50:40.024Z,52.53
2019-02-05T07:53:10.688Z,32.57
2019-02-05T07:55:40.925Z,46.17
2019-02-05T07:58:11.105Z,36.10
2019-02-05T08:00:41.221Z,50.50
2019-02-05T08:03:11.327Z,34.83
2019-02-05T08:05:41.695Z,32.13
2019-02-05T08:08:12.283Z,38.03
2019-02-05T08:10:42.391Z,42.50
2019-02-05T08:13:12.712Z,41.47
2019-02-05T08:15:43.034Z,39.60
2019-02-05T08:18:13.155Z,45.37
2019-02-05T08:20:43.359Z,38.87
2019-02-05T08:23:13.493Z,33.33
2019-02-05T08:25:44.171Z,38.20
2019-02-05T08:28:14.597Z,45.03
2019-02-05T08:30:45.860Z,45.43
2019-02-05T08:33:16.046Z,41.10
2019-02-05T08:35:46.564Z,36.17
2019-02-05T08:38:16.654Z,42.80
2019-02-05T08:40:47.100Z,48.50
2019-02-05T08:43:17.326Z,37.70
2019-02-05T08:45:56.309Z,41.47
2019-02-05T08:48:19.479Z,47.20
2019-02-05T08:50:49.590Z,35.17
2019-02-05T08:53:19.668Z,47.13
2019-02-05T08:55:50.661Z,46.40
2019-02-05T08:58:30.772Z,45.37
2019-02-05T09:00:52.974Z,44.27
2019-02-05T09:03:23.427Z,45.27
2019-02-05T09:05:54.228Z,53.80
2019-02-05T09:08:24.353Z,48.13
2019-02-05T09:10:59.168Z,35.40
2019-02-05T09:13:29.976Z,47.13
2019-02-05T09:16:00.230Z,47.17
2019-02-05T09:18:30.688Z,48.53
2019-02-05T09:21:02.997Z,52.10
2019-02-05T09:23:33.162Z,41.83
2019-02-05T09:26:04.592Z,41.17
2019-02-05T09:28:34.012Z,36.73
2019-02-05T09:31:05.528Z,51.35
2019-02-05T09:33:36.191Z,56.23
2019-02-05T09:36:06.503Z,44.73
2019-02-05T09:38:37.053Z,48.97
2019-02-05T09:41:07.383Z,51.43
2019-02-05T09:43:37.862Z,45.40
2019-02-05T09:46:08.086Z,43.30
2019-02-05T09:48:38.509Z,58.50
2019-02-05T09:51:08.829Z,44.73
2019-02-05T09:53:39.281Z,40.53
2019-02-05T09:56:09.557Z,42.33
2019-02-05T09:58:39.670Z,44.97
2019-02-05T10:01:10.456Z,45.40
2019-02-05T10:03:40.704Z,43.37
2019-02-05T10:06:10.989Z,41.27
2019-02-05T10:08:41.128Z,39.13
2019-02-05T10:11:11.333Z,42.83
2019-02-05T10:13:41.521Z,39.30
2019-02-05T10:16:11.814Z,39.57
2019-02-05T10:18:42.145Z,35.47
2019-02-05T10:21:12.580Z,36.20
2019-02-05T10:23:42.884Z,39.20
2019-02-05T10:26:13.087Z,37.13
2019-02-05T10:28:43.370Z,42.23
2019-02-05T10:31:13.606Z,33.37
2019-02-05T10:33:54.722Z,32.37
2019-02-05T10:36:15.752Z,39.87
2019-02-05T10:38:46.058Z,42.17
2019-02-05T10:41:16.352Z,41.33
2019-02-05T10:43:46.501Z,44.93
2019-02-05T10:46:16.638Z,37.93
2019-02-05T10:48:46.945Z,42.33
2019-02-05T10:51:17.109Z,42.50
2019-02-05T10:53:47.276Z,40.70
2019-02-05T10:56:17.456Z,34.03
2019-02-05T10:58:47.569Z,37.63
2019-02-05T11:01:17.739Z,32.33
2019-02-05T11:03:47.940Z,46.93
2019-02-05T11:06:20.034Z,37.53
2019-02-05T11:08:50.558Z,35.80
2019-02-05T11:11:20.762Z,39.47
2019-02-05T11:13:51.134Z,38.20
2019-02-05T11:16:21.314Z,47.00
2019-02-05T11:18:51.457Z,46.00
2019-02-05T11:21:21.774Z,44.87
2019-02-05T11:23:52.056Z,40.33
2019-02-05T11:26:22.157Z,45.47
2019-02-05T11:28:52.299Z,33.57
2019-02-05T11:31:22.483Z,37.95
2019-02-05T11:33:52.559Z,37.37
2019-02-05T11:36:22.824Z,35.43
2019-02-05T11:38:53.002Z,38.30
2019-02-05T11:41:23.299Z,31.77
2019-02-05T11:43:53.682Z,38.47
2019-02-05T11:46:23.858Z,36.80
2019-02-05T11:48:53.973Z,37.23
2019-02-05T11:51:24.135Z,36.73
2019-02-05T11:53:54.277Z,35.80
2019-02-05T11:56:24.480Z,40.03
2019-02-05T11:58:54.775Z,38.37
2019-02-05T12:01:38.375Z,51.53
2019-02-05T12:04:02.867Z,39.63
2019-02-05T12:06:33.117Z,41.57
2019-02-05T12:09:05.711Z,47.30
2019-02-05T12:11:35.906Z,33.27
2019-02-05T12:14:07.070Z,47.37
2019-02-05T12:16:39.177Z,44.67
2019-02-05T12:19:09.684Z,43.20
2019-02-05T12:21:40.311Z,39.23
2019-02-05T12:24:11.015Z,38.93
2019-02-05T12:26:42.470Z,38.80
2019-02-05T12:29:13.859Z,39.77
2019-02-05T12:31:44.175Z,33.13
2019-02-05T12:34:14.455Z,36.50
2019-02-05T12:36:44.683Z,34.97
2019-02-05T12:39:16.355Z,39.57
2019-02-05T12:41:46.788Z,33.13
2019-02-05T12:44:16.951Z,39.77
2019-02-05T12:46:47.149Z,38.77
2019-02-05T12:49:17.515Z,32.37
2019-02-05T12:51:47.753Z,33.93
2019-02-05T12:54:18.028Z,37.97
2019-02-05T12:56:48.212Z,30.90
2019-02-05T12:59:18.619Z,40.47
2019-02-05T13:01:49.020Z,40.10
2019-02-05T13:04:19.173Z,35.30
2019-02-05T13:06:48.714Z,41.70
2019-02-05T13:09:19.046Z,42.30
2019-02-05T13:11:49.231Z,35.77
2019-02-05T13:14:19.328Z,39.40
2019-02-05T13:16:49.639Z,35.93
2019-02-05T13:19:19.712Z,40.55
2019-02-05T13:21:50.441Z,35.03
2019-02-05T13:24:22.243Z,35.87
2019-02-05T13:26:52.287Z,30.77
2019-02-05T13:29:23.234Z,24.47
2019-02-05T13:31:53.398Z,38.73
2019-02-05T13:34:23.935Z,32.60
2019-02-05T13:36:54.024Z,29.70
2019-02-05T13:39:24.191Z,29.10
2019-02-05T13:41:54.378Z,26.27
2019-02-05T13:44:24.600Z,25.40
2019-02-05T13:46:54.781Z,30.90
2019-02-05T13:49:24.885Z,35.57
2019-02-05T13:51:55.089Z,32.00
2019-02-05T13:54:26.433Z,31.07
2019-02-05T13:56:56.716Z,28.60
2019-02-05T13:59:26.937Z,29.00
2019-02-05T14:01:57.509Z,29.20
2019-02-05T14:04:27.756Z,25.90
2019-02-05T14:06:57.966Z,26.93
2019-02-05T14:09:28.123Z,31.13
2019-02-05T14:11:58.297Z,31.30
2019-02-05T14:14:28.992Z,28.07
2019-02-05T14:16:59.915Z,25.57
2019-02-05T14:19:30.064Z,30.33
2019-02-05T14:22:00.220Z,27.30
2019-02-05T14:24:31.609Z,30.40
2019-02-05T14:27:01.763Z,24.53
2019-02-05T14:29:32.263Z,33.80
2019-02-05T14:32:02.452Z,24.37
2019-02-05T14:34:32.561Z,27.60
2019-02-05T14:37:03.018Z,24.20
2019-02-05T14:39:33.228Z,25.97
2019-02-05T14:42:04.640Z,23.90
2019-02-05T14:44:35.159Z,26.93
2019-02-05T14:47:05.513Z,31.17
2019-02-05T14:49:35.698Z,26.60
2019-02-05T14:52:05.873Z,24.03
2019-02-05T14:54:36.159Z,30.17
2019-02-05T14:57:06.616Z,25.17
2019-02-05T14:59:36.728Z,27.60
2019-02-05T15:02:07.903Z,30.47
2019-02-05T15:04:38.201Z,25.47
2019-02-05T15:07:09.373Z,27.40
2019-02-05T15:09:40.313Z,25.50
2019-02-05T15:12:10.691Z,27.70
2019-02-05T15:14:41.452Z,22.13
2019-02-05T15:17:13.220Z,20.97
2019-02-05T15:19:49.733Z,28.77
2019-02-05T15:22:20.092Z,27.87
2019-02-05T15:24:50.561Z,24.50
2019-02-05T15:27:23.816Z,27.33
2019-02-05T15:30:08.162Z,30.97
2019-02-05T15:32:45.920Z,32.60
2019-02-05T15:35:16.413Z,27.03
2019-02-05T15:37:46.579Z,25.93
2019-02-05T15:40:16.852Z,25.10
2019-02-05T15:42:47.036Z,27.83
2019-02-05T15:45:18.590Z,28.40
2019-02-05T15:47:48.895Z,29.80
2019-02-05T15:50:19.299Z,27.17
2019-02-05T15:52:49.512Z,24.37
2019-02-05T15:55:21.061Z,29.83
2019-02-05T15:57:51.738Z,27.70
2019-02-05T16:00:22.128Z,31.37
2019-02-05T16:02:52.414Z,26.83
2019-02-05T16:05:24.719Z,32.57
2019-02-05T16:07:55.105Z,25.93
2019-02-05T16:10:27.704Z,22.27
2019-02-05T16:12:59.379Z,25.37
2019-02-05T16:15:29.892Z,25.73
2019-02-05T16:18:00.369Z,25.47
2019-02-05T16:20:30.551Z,21.77
2019-02-05T16:23:00.841Z,25.33
2019-02-05T16:28:01.995Z,28.90
2019-02-05T16:30:33.159Z,30.67
2019-02-05T16:33:04.176Z,24.33
2019-02-05T16:35:37.928Z,29.43
2019-02-05T16:38:08.730Z,28.03
2019-02-05T16:40:39.549Z,32.43
2019-02-05T16:43:09.737Z,24.50
2019-02-05T16:45:39.960Z,27.03
2019-02-05T16:48:10.250Z,23.10
2019-02-05T16:50:42.468Z,21.90
2019-02-05T16:53:13.318Z,23.03
2019-02-05T16:55:43.512Z,23.80
2019-02-05T16:58:13.894Z,26.10
2019-02-05T17:00:44.505Z,24.50
2019-02-05T17:03:15.382Z,26.97
2019-02-05T17:05:45.564Z,23.03
2019-02-05T17:08:15.802Z,27.60
2019-02-05T17:10:46.384Z,24.30
2019-02-05T17:13:16.632Z,24.37
2019-02-05T17:15:46.884Z,22.23
2019-02-05T17:18:23.657Z,25.57
2019-02-05T17:20:51.401Z,26.17
2019-02-05T17:23:22.581Z,30.83
2019-02-05T17:25:55.065Z,23.40
2019-02-05T17:28:28.411Z,26.87
2019-02-05T17:30:59.645Z,33.07
2019-02-05T17:33:30.107Z,28.17
2019-02-05T17:36:00.698Z,29.67
2019-02-05T17:38:31.579Z,27.83
2019-02-05T17:41:03.607Z,32.83
2019-02-05T17:43:39.427Z,30.00
2019-02-05T17:46:13.009Z,29.43
2019-02-05T17:48:43.160Z,35.40
2019-02-05T17:51:13.919Z,28.33
2019-02-05T17:53:44.350Z,25.93
2019-02-05T17:56:17.151Z,27.47
2019-02-05T17:58:48.634Z,28.63
2019-02-05T18:01:19.768Z,30.07
2019-02-05T18:03:50.094Z,31.80
2019-02-05T18:06:20.858Z,32.00
2019-02-05T18:08:52.648Z,31.53
2019-02-05T18:11:23.088Z,31.43
2019-02-05T18:13:53.481Z,44.80
2019-02-05T18:16:23.823Z,31.23
2019-02-05T18:18:54.197Z,28.93
2019-02-05T18:21:27.213Z,37.53
2019-02-05T18:23:58.987Z,33.80
2019-02-05T18:26:29.654Z,29.27
2019-02-05T18:29:00.309Z,34.67
2019-02-05T18:31:33.164Z,33.40
2019-02-05T18:34:04.659Z,30.47
2019-02-05T18:36:35.312Z,34.00
2019-02-05T18:39:08.140Z,25.17
2019-02-05T18:41:39.705Z,33.07
2019-02-05T18:44:11.634Z,33.67
2019-02-05T18:46:41.981Z,30.63
2019-02-05T18:49:12.254Z,32.00
2019-02-05T18:51:42.743Z,29.00
2019-02-05T18:54:13.563Z,28.93
2019-02-05T18:56:44.528Z,32.03
2019-02-05T18:59:16.009Z,34.33
2019-02-05T19:01:46.323Z,34.67
2019-02-05T19:04:18.153Z,31.10
2019-02-05T19:06:48.943Z,34.73
2019-02-05T19:09:19.377Z,31.20
2019-02-05T19:11:52.531Z,36.23
2019-02-05T19:14:37.874Z,29.80
2019-02-05T19:17:09.008Z,40.70
2019-02-05T19:19:48.834Z,34.83
2019-02-05T19:22:21.138Z,28.00
2019-02-05T19:24:57.325Z,33.20
2019-02-05T19:27:30.390Z,30.67
2019-02-05T19:30:14.229Z,29.43
2019-02-05T19:33:05.397Z,25.03
2019-02-05T19:35:35.672Z,31.60
2019-02-05T19:38:05.966Z,33.50
2019-02-05T19:40:36.429Z,26.80
2019-02-05T19:43:07.203Z,29.57
2019-02-05T19:45:57.400Z,31.20
2019-02-05T19:48:33.780Z,36.40
2019-02-05T19:51:11.585Z,32.77
2019-02-05T19:53:43.129Z,38.27
2019-02-05T19:56:23.416Z,33.87
2019-02-05T19:59:18.305Z,28.43
2019-02-05T20:01:58.671Z,34.17
2019-02-05T20:04:40.148Z,31.10
2019-02-05T20:07:10.355Z,30.17
2019-02-05T20:09:42.932Z,30.97
2019-02-05T20:12:15.180Z,32.53
2019-02-05T20:14:55.318Z,36.47
2019-02-05T20:17:39.079Z,28.23
2019-02-05T20:20:21.516Z,27.32
2019-02-05T20:22:54.650Z,27.57
2019-02-05T20:25:25.643Z,33.57
2019-02-05T20:27:57.891Z,27.90
2019-02-05T20:30:28.326Z,32.80
2019-02-05T20:32:59.566Z,34.70
2019-02-05T20:35:30.527Z,33.73
2019-02-05T20:38:00.961Z,31.23
2019-02-05T20:40:31.884Z,27.67
2019-02-05T20:43:02.443Z,35.60
2019-02-05T20:45:38.074Z,36.77
2019-02-05T20:54:21.589Z,26.63
2019-02-05T20:56:52.421Z,29.87
2019-02-05T20:59:23.685Z,34.33
2019-02-05T21:01:56.238Z,39.30
2019-02-05T21:04:26.754Z,34.93
2019-02-05T21:06:59.748Z,29.90
2019-02-05T21:09:30.236Z,31.10
2019-02-05T21:12:00.813Z,35.77
2019-02-05T21:14:31.177Z,34.03
2019-02-05T21:17:01.784Z,32.50
2019-02-05T21:19:35.846Z,31.00
2019-02-05T21:22:14.067Z,29.13
2019-02-05T21:24:46.264Z,32.47
2019-02-05T21:27:19.218Z,29.10
2019-02-05T21:29:49.577Z,29.57
2019-02-05T21:32:20.237Z,33.70
2019-02-05T21:34:50.956Z,33.97
2019-02-05T21:37:21.528Z,30.87
2019-02-05T21:40:02.068Z,33.23
2019-02-05T21:42:26.564Z,36.60
2019-02-05T21:45:00.710Z,28.70
2019-02-05T21:47:31.660Z,30.70
2019-02-05T21:50:05.873Z,31.37
2019-02-05T21:52:39.051Z,27.67
2019-02-05T21:55:25.757Z,34.80
2019-02-05T22:03:26.970Z,38.57
2019-02-05T22:05:57.561Z,26.50
2019-02-05T22:08:28.386Z,27.87
2019-02-05T22:10:58.877Z,29.73
2019-02-05T22:13:30.061Z,27.83
2019-02-05T22:19:00.784Z,28.90
2019-02-05T22:21:32.666Z,30.63
2019-02-05T22:24:04.393Z,24.60
2019-02-05T22:26:43.647Z,28.40
2019-02-05T22:29:22.022Z,28.43
2019-02-05T22:32:36.005Z,26.77
2019-02-05T22:47:02.354Z,31.17
2019-02-05T22:49:33.809Z,26.60
2019-02-05T22:52:05.888Z,30.53
2019-02-05T22:54:37.880Z,28.10
2019-02-05T22:57:08.410Z,29.00
2019-02-05T22:59:39.146Z,29.47
2019-02-05T23:02:09.564Z,29.60
2019-02-05T23:04:50.826Z,28.42
2019-02-05T23:07:21.863Z,27.57
2019-02-05T23:10:29.607Z,26.67
2019-02-05T23:13:09.446Z,31.37
2019-02-05T23:16:00.971Z,29.23
2019-02-05T23:18:31.752Z,31.47
2019-02-05T23:21:03.528Z,30.23
2019-02-05T23:23:34.261Z,30.00
2019-02-05T23:28:51.596Z,29.37
2019-02-05T23:31:22.846Z,33.60
2019-02-05T23:33:53.888Z,32.80
2019-02-05T23:36:25.477Z,33.43
2019-02-05T23:39:03.288Z,29.10
2019-02-05T23:41:36.208Z,30.67
2019-02-05T23:44:13.743Z,37.10
2019-02-05T23:46:51.812Z,32.17
2019-02-05T23:49:27.479Z,32.87
2019-02-05T23:51:58.685Z,28.63
2019-02-05T23:54:29.970Z,36.13
2019-02-05T23:57:04.490Z,33.23
2019-02-05T23:59:39.325Z,39.53
